sensor_id;sensor_type;location;lat;lon;timestamp;P1;durP1;ratioP1;P2;durP2;ratioP2
8252;SDS011;61313;48.396;10.008;2023-02-17T00:00:21;19.30;;;15.27;;
8252;SDS011;61313;48.396;10.008;2023-02-17T00:02:46;20.57;;;14.57;;
8252;SDS011;61313;48.396;10.008;2023-02-17T00:05:11;22.37;;;15.87;;
8252;SDS011;61313;48.396;10.008;2023-02-17T00:07:37;24.50;;;17.60;;
8252;SDS011;61313;48.396;10.008;2023-02-17T00:10:03;24.83;;;16.53;;
8252;SDS011;61313;48.396;10.008;2023-02-17T00:12:28;21.17;;;17.27;;
8252;SDS011;61313;48.396;10.008;2023-02-17T00:14:54;19.53;;;14.07;;
8252;SDS011;61313;48.396;10.008;2023-02-17T00:17:19;20.07;;;14.70;;
8252;SDS011;61313;48.396;10.008;2023-02-17T00:19:45;17.60;;;14.53;;
8252;SDS011;61313;48.396;10.008;2023-02-17T00:22:10;20.43;;;14.80;;
8252;SDS011;61313;48.396;10.008;2023-02-17T00:24:36;21.80;;;15.57;;
8252;SDS011;61313;48.396;10.008;2023-02-17T00:27:03;22.40;;;15.73;;
8252;SDS011;61313;48.396;10.008;2023-02-17T00:29:29;20.97;;;15.77;;
8252;SDS011;61313;48.396;10.008;2023-02-17T00:31:55;20.93;;;15.17;;
8252;SDS011;61313;48.396;10.008;2023-02-17T00:34:21;22.47;;;15.53;;
8252;SDS011;61313;48.396;10.008;2023-02-17T00:36:46;21.63;;;13.90;;
8252;SDS011;61313;48.396;10.008;2023-02-17T00:39:12;19.70;;;15.13;;
8252;SDS011;61313;48.396;10.008;2023-02-17T00:41:39;22.20;;;14.60;;
8252;SDS011;61313;48.396;10.008;2023-02-17T00:44:05;15.97;;;12.90;;
8252;SDS011;61313;48.396;10.008;2023-02-17T00:46:31;19.40;;;15.87;;
8252;SDS011;61313;48.396;10.008;2023-02-17T00:48:57;19.33;;;15.30;;
8252;SDS011;61313;48.396;10.008;2023-02-17T00:51:22;23.40;;;14.13;;
8252;SDS011;61313;48.396;10.008;2023-02-17T00:53:49;19.37;;;15.67;;
8252;SDS011;61313;48.396;10.008;2023-02-17T00:56:15;18.67;;;16.10;;
8252;SDS011;61313;48.396;10.008;2023-02-17T00:58:40;21.70;;;14.80;;
8252;SDS011;61313;48.396;10.008;2023-02-17T01:01:06;23.90;;;13.97;;
8252;SDS011;61313;48.396;10.008;2023-02-17T01:03:33;20.93;;;14.40;;
8252;SDS011;61313;48.396;10.008;2023-02-17T01:05:58;20.07;;;13.87;;
8252;SDS011;61313;48.396;10.008;2023-02-17T01:08:24;23.50;;;14.33;;
8252;SDS011;61313;48.396;10.008;2023-02-17T01:10:50;27.87;;;15.83;;
8252;SDS011;61313;48.396;10.008;2023-02-17T01:13:17;23.90;;;15.10;;
8252;SDS011;61313;48.396;10.008;2023-02-17T01:15:46;25.97;;;15.20;;
8252;SDS011;61313;48.396;10.008;2023-02-17T01:18:15;23.43;;;16.00;;
8252;SDS011;61313;48.396;10.008;2023-02-17T01:20:42;30.67;;;15.90;;
8252;SDS011;61313;48.396;10.008;2023-02-17T01:23:08;17.73;;;13.50;;
8252;SDS011;61313;48.396;10.008;2023-02-17T01:25:35;20.83;;;13.57;;
8252;SDS011;61313;48.396;10.008;2023-02-17T01:28:05;21.37;;;14.57;;
8252;SDS011;61313;48.396;10.008;2023-02-17T01:30:31;18.87;;;16.30;;
8252;SDS011;61313;48.396;10.008;2023-02-17T01:32:57;18.50;;;14.77;;
8252;SDS011;61313;48.396;10.008;2023-02-17T01:35:22;16.40;;;13.10;;
8252;SDS011;61313;48.396;10.008;2023-02-17T01:37:48;19.53;;;13.90;;
8252;SDS011;61313;48.396;10.008;2023-02-17T01:40:13;17.97;;;12.67;;
8252;SDS011;61313;48.396;10.008;2023-02-17T01:42:40;24.40;;;13.33;;
8252;SDS011;61313;48.396;10.008;2023-02-17T01:47:44;21.03;;;13.73;;
8252;SDS011;61313;48.396;10.008;2023-02-17T01:50:12;20.70;;;13.10;;
8252;SDS011;61313;48.396;10.008;2023-02-17T01:52:39;18.70;;;13.00;;
8252;SDS011;61313;48.396;10.008;2023-02-17T01:55:08;19.60;;;14.90;;
8252;SDS011;61313;48.396;10.008;2023-02-17T01:57:37;17.10;;;12.50;;
8252;SDS011;61313;48.396;10.008;2023-02-17T02:00:06;21.30;;;12.53;;
8252;SDS011;61313;48.396;10.008;2023-02-17T02:02:35;18.23;;;13.33;;
8252;SDS011;61313;48.396;10.008;2023-02-17T02:05:02;20.13;;;13.20;;
8252;SDS011;61313;48.396;10.008;2023-02-17T02:07:29;25.90;;;14.03;;
8252;SDS011;61313;48.396;10.008;2023-02-17T02:09:58;19.63;;;12.97;;
8252;SDS011;61313;48.396;10.008;2023-02-17T02:12:28;19.03;;;13.30;;
8252;SDS011;61313;48.396;10.008;2023-02-17T02:14:57;18.63;;;13.17;;
8252;SDS011;61313;48.396;10.008;2023-02-17T02:17:34;17.70;;;12.77;;
8252;SDS011;61313;48.396;10.008;2023-02-17T02:22:47;15.47;;;12.30;;
8252;SDS011;61313;48.396;10.008;2023-02-17T02:35:02;19.77;;;13.53;;
8252;SDS011;61313;48.396;10.008;2023-02-17T02:37:14;23.43;;;13.50;;
8252;SDS011;61313;48.396;10.008;2023-02-17T02:39:45;17.50;;;12.73;;
8252;SDS011;61313;48.396;10.008;2023-02-17T02:42:15;18.77;;;13.10;;
8252;SDS011;61313;48.396;10.008;2023-02-17T02:44:43;16.47;;;12.87;;
8252;SDS011;61313;48.396;10.008;2023-02-17T02:49:59;17.83;;;14.80;;
8252;SDS011;61313;48.396;10.008;2023-02-17T02:58:02;19.03;;;13.03;;
8252;SDS011;61313;48.396;10.008;2023-02-17T03:00:32;16.57;;;11.90;;
8252;SDS011;61313;48.396;10.008;2023-02-17T03:03:16;23.10;;;12.50;;
8252;SDS011;61313;48.396;10.008;2023-02-17T03:06:06;18.43;;;12.33;;
8252;SDS011;61313;48.396;10.008;2023-02-17T03:08:56;17.60;;;13.13;;
8252;SDS011;61313;48.396;10.008;2023-02-17T03:11:27;22.17;;;12.90;;
8252;SDS011;61313;48.396;10.008;2023-02-17T03:14:12;21.67;;;16.90;;
8252;SDS011;61313;48.396;10.008;2023-02-17T03:16:40;21.63;;;13.43;;
8252;SDS011;61313;48.396;10.008;2023-02-17T03:19:07;14.80;;;12.97;;
8252;SDS011;61313;48.396;10.008;2023-02-17T03:21:36;18.13;;;12.60;;
8252;SDS011;61313;48.396;10.008;2023-02-17T03:24:05;18.60;;;12.50;;
8252;SDS011;61313;48.396;10.008;2023-02-17T03:26:32;16.70;;;12.50;;
8252;SDS011;61313;48.396;10.008;2023-02-17T03:28:57;18.87;;;12.40;;
8252;SDS011;61313;48.396;10.008;2023-02-17T03:31:23;24.07;;;14.60;;
8252;SDS011;61313;48.396;10.008;2023-02-17T03:33:48;18.57;;;12.70;;
8252;SDS011;61313;48.396;10.008;2023-02-17T03:36:14;17.10;;;13.40;;
8252;SDS011;61313;48.396;10.008;2023-02-17T03:38:39;23.37;;;13.50;;
8252;SDS011;61313;48.396;10.008;2023-02-17T03:41:05;18.63;;;13.00;;
8252;SDS011;61313;48.396;10.008;2023-02-17T03:43:30;20.87;;;13.07;;
8252;SDS011;61313;48.396;10.008;2023-02-17T03:45:55;17.17;;;13.30;;
8252;SDS011;61313;48.396;10.008;2023-02-17T03:48:21;18.77;;;12.87;;
8252;SDS011;61313;48.396;10.008;2023-02-17T03:50:46;21.67;;;13.77;;
8252;SDS011;61313;48.396;10.008;2023-02-17T03:53:12;18.40;;;13.60;;
8252;SDS011;61313;48.396;10.008;2023-02-17T03:55:37;19.67;;;13.60;;
8252;SDS011;61313;48.396;10.008;2023-02-17T03:58:03;21.20;;;14.87;;
8252;SDS011;61313;48.396;10.008;2023-02-17T04:00:28;26.00;;;15.37;;
8252;SDS011;61313;48.396;10.008;2023-02-17T04:02:54;22.73;;;14.67;;
8252;SDS011;61313;48.396;10.008;2023-02-17T04:05:21;18.47;;;14.43;;
8252;SDS011;61313;48.396;10.008;2023-02-17T04:07:47;21.10;;;13.93;;
8252;SDS011;61313;48.396;10.008;2023-02-17T04:10:12;20.43;;;15.53;;
8252;SDS011;61313;48.396;10.008;2023-02-17T04:12:38;19.33;;;12.27;;
8252;SDS011;61313;48.396;10.008;2023-02-17T04:15:03;19.87;;;14.33;;
8252;SDS011;61313;48.396;10.008;2023-02-17T04:17:29;20.23;;;13.47;;
8252;SDS011;61313;48.396;10.008;2023-02-17T04:19:54;22.60;;;13.27;;
8252;SDS011;61313;48.396;10.008;2023-02-17T04:22:20;18.47;;;12.83;;
8252;SDS011;61313;48.396;10.008;2023-02-17T04:24:45;20.30;;;13.57;;
8252;SDS011;61313;48.396;10.008;2023-02-17T04:27:11;21.70;;;13.50;;
8252;SDS011;61313;48.396;10.008;2023-02-17T04:29:36;17.37;;;12.40;;
8252;SDS011;61313;48.396;10.008;2023-02-17T04:32:01;23.47;;;13.60;;
8252;SDS011;61313;48.396;10.008;2023-02-17T04:34:27;18.23;;;12.30;;
8252;SDS011;61313;48.396;10.008;2023-02-17T04:36:52;18.50;;;13.03;;
8252;SDS011;61313;48.396;10.008;2023-02-17T04:39:18;16.97;;;12.67;;
8252;SDS011;61313;48.396;10.008;2023-02-17T04:41:43;20.73;;;14.23;;
8252;SDS011;61313;48.396;10.008;2023-02-17T04:44:09;16.00;;;12.70;;
8252;SDS011;61313;48.396;10.008;2023-02-17T04:46:34;18.00;;;13.50;;
8252;SDS011;61313;48.396;10.008;2023-02-17T04:49:00;18.57;;;12.27;;
8252;SDS011;61313;48.396;10.008;2023-02-17T04:51:25;19.20;;;12.93;;
8252;SDS011;61313;48.396;10.008;2023-02-17T04:53:51;18.93;;;14.23;;
8252;SDS011;61313;48.396;10.008;2023-02-17T04:56:16;16.60;;;12.60;;
8252;SDS011;61313;48.396;10.008;2023-02-17T04:58:41;17.40;;;12.77;;
8252;SDS011;61313;48.396;10.008;2023-02-17T05:01:07;17.63;;;12.60;;
8252;SDS011;61313;48.396;10.008;2023-02-17T05:03:32;18.30;;;12.90;;
8252;SDS011;61313;48.396;10.008;2023-02-17T05:05:58;18.50;;;12.27;;
8252;SDS011;61313;48.396;10.008;2023-02-17T05:08:23;15.23;;;11.77;;
8252;SDS011;61313;48.396;10.008;2023-02-17T05:10:49;24.30;;;13.33;;
8252;SDS011;61313;48.396;10.008;2023-02-17T05:13:16;20.87;;;12.20;;
8252;SDS011;61313;48.396;10.008;2023-02-17T05:15:43;19.60;;;10.80;;
8252;SDS011;61313;48.396;10.008;2023-02-17T05:18:08;16.23;;;12.30;;
8252;SDS011;61313;48.396;10.008;2023-02-17T05:20:34;20.90;;;11.80;;
8252;SDS011;61313;48.396;10.008;2023-02-17T05:22:59;17.97;;;10.30;;
8252;SDS011;61313;48.396;10.008;2023-02-17T05:25:25;15.10;;;10.60;;
8252;SDS011;61313;48.396;10.008;2023-02-17T05:27:51;25.63;;;12.10;;
8252;SDS011;61313;48.396;10.008;2023-02-17T05:30:17;15.10;;;9.87;;
8252;SDS011;61313;48.396;10.008;2023-02-17T05:32:42;20.10;;;10.50;;
8252;SDS011;61313;48.396;10.008;2023-02-17T05:35:08;19.90;;;11.33;;
8252;SDS011;61313;48.396;10.008;2023-02-17T05:37:33;16.47;;;9.80;;
8252;SDS011;61313;48.396;10.008;2023-02-17T05:39:59;18.17;;;11.07;;
8252;SDS011;61313;48.396;10.008;2023-02-17T05:42:24;13.33;;;10.00;;
8252;SDS011;61313;48.396;10.008;2023-02-17T05:44:53;15.30;;;10.13;;
8252;SDS011;61313;48.396;10.008;2023-02-17T05:47:19;11.60;;;10.30;;
8252;SDS011;61313;48.396;10.008;2023-02-17T05:49:44;13.60;;;9.50;;
8252;SDS011;61313;48.396;10.008;2023-02-17T05:52:10;14.83;;;10.00;;
8252;SDS011;61313;48.396;10.008;2023-02-17T05:54:35;12.33;;;8.87;;
8252;SDS011;61313;48.396;10.008;2023-02-17T05:57:01;13.47;;;9.37;;
8252;SDS011;61313;48.396;10.008;2023-02-17T05:59:26;19.50;;;9.07;;
8252;SDS011;61313;48.396;10.008;2023-02-17T06:01:51;13.57;;;10.40;;
8252;SDS011;61313;48.396;10.008;2023-02-17T06:04:17;17.03;;;9.93;;
8252;SDS011;61313;48.396;10.008;2023-02-17T06:06:42;17.27;;;9.83;;
8252;SDS011;61313;48.396;10.008;2023-02-17T06:09:08;21.40;;;10.80;;
8252;SDS011;61313;48.396;10.008;2023-02-17T06:11:33;19.17;;;10.27;;
8252;SDS011;61313;48.396;10.008;2023-02-17T06:13:59;18.53;;;10.70;;
8252;SDS011;61313;48.396;10.008;2023-02-17T06:16:25;16.10;;;9.57;;
8252;SDS011;61313;48.396;10.008;2023-02-17T06:18:50;29.93;;;10.40;;
8252;SDS011;61313;48.396;10.008;2023-02-17T06:21:15;13.43;;;9.50;;
8252;SDS011;61313;48.396;10.008;2023-02-17T06:23:41;29.13;;;10.80;;
8252;SDS011;61313;48.396;10.008;2023-02-17T06:26:06;16.70;;;9.37;;
8252;SDS011;61313;48.396;10.008;2023-02-17T06:28:32;14.47;;;9.50;;
8252;SDS011;61313;48.396;10.008;2023-02-17T06:30:57;17.03;;;9.63;;
8252;SDS011;61313;48.396;10.008;2023-02-17T06:33:22;17.43;;;8.60;;
8252;SDS011;61313;48.396;10.008;2023-02-17T06:35:49;19.83;;;9.93;;
8252;SDS011;61313;48.396;10.008;2023-02-17T06:38:15;13.30;;;8.97;;
8252;SDS011;61313;48.396;10.008;2023-02-17T06:40:40;15.17;;;9.50;;
8252;SDS011;61313;48.396;10.008;2023-02-17T06:43:06;18.73;;;9.40;;
8252;SDS011;61313;48.396;10.008;2023-02-17T06:45:32;17.53;;;9.37;;
8252;SDS011;61313;48.396;10.008;2023-02-17T06:47:57;15.67;;;8.33;;
8252;SDS011;61313;48.396;10.008;2023-02-17T06:50:23;10.77;;;8.73;;
8252;SDS011;61313;48.396;10.008;2023-02-17T06:52:48;14.80;;;9.23;;
8252;SDS011;61313;48.396;10.008;2023-02-17T06:55:14;13.23;;;8.20;;
8252;SDS011;61313;48.396;10.008;2023-02-17T06:57:39;27.50;;;9.67;;
8252;SDS011;61313;48.396;10.008;2023-02-17T07:00:05;18.83;;;9.03;;
8252;SDS011;61313;48.396;10.008;2023-02-17T07:02:30;16.03;;;9.20;;
8252;SDS011;61313;48.396;10.008;2023-02-17T07:04:56;14.87;;;9.00;;
8252;SDS011;61313;48.396;10.008;2023-02-17T07:07:21;12.13;;;8.80;;
8252;SDS011;61313;48.396;10.008;2023-02-17T07:09:47;13.80;;;8.30;;
8252;SDS011;61313;48.396;10.008;2023-02-17T07:12:12;33.10;;;11.40;;
8252;SDS011;61313;48.396;10.008;2023-02-17T07:14:38;30.90;;;11.93;;
8252;SDS011;61313;48.396;10.008;2023-02-17T07:17:03;12.93;;;9.37;;
8252;SDS011;61313;48.396;10.008;2023-02-17T07:19:29;21.50;;;9.43;;
8252;SDS011;61313;48.396;10.008;2023-02-17T07:21:54;21.00;;;9.07;;
8252;SDS011;61313;48.396;10.008;2023-02-17T07:24:20;13.53;;;8.07;;
8252;SDS011;61313;48.396;10.008;2023-02-17T07:26:45;12.10;;;8.47;;
8252;SDS011;61313;48.396;10.008;2023-02-17T07:29:12;12.90;;;8.77;;
8252;SDS011;61313;48.396;10.008;2023-02-17T07:31:38;14.53;;;9.37;;
8252;SDS011;61313;48.396;10.008;2023-02-17T07:34:03;14.27;;;8.90;;
8252;SDS011;61313;48.396;10.008;2023-02-17T07:36:30;18.13;;;8.20;;
8252;SDS011;61313;48.396;10.008;2023-02-17T07:38:55;15.30;;;8.73;;
8252;SDS011;61313;48.396;10.008;2023-02-17T07:41:22;13.37;;;8.50;;
8252;SDS011;61313;48.396;10.008;2023-02-17T07:43:51;12.43;;;8.30;;
8252;SDS011;61313;48.396;10.008;2023-02-17T07:46:18;14.57;;;9.27;;
8252;SDS011;61313;48.396;10.008;2023-02-17T07:48:44;11.47;;;8.73;;
8252;SDS011;61313;48.396;10.008;2023-02-17T07:51:11;12.33;;;8.20;;
8252;SDS011;61313;48.396;10.008;2023-02-17T07:53:38;27.00;;;9.33;;
8252;SDS011;61313;48.396;10.008;2023-02-17T07:56:05;14.33;;;7.80;;
8252;SDS011;61313;48.396;10.008;2023-02-17T07:58:32;11.30;;;8.10;;
8252;SDS011;61313;48.396;10.008;2023-02-17T08:01:06;12.23;;;7.67;;
8252;SDS011;61313;48.396;10.008;2023-02-17T08:03:32;11.60;;;7.93;;
8252;SDS011;61313;48.396;10.008;2023-02-17T08:05:58;12.93;;;8.40;;
8252;SDS011;61313;48.396;10.008;2023-02-17T08:08:23;13.60;;;7.67;;
8252;SDS011;61313;48.396;10.008;2023-02-17T08:11:11;11.63;;;7.57;;
8252;SDS011;61313;48.396;10.008;2023-02-17T08:13:56;14.50;;;8.47;;
8252;SDS011;61313;48.396;10.008;2023-02-17T08:16:21;15.80;;;8.10;;
8252;SDS011;61313;48.396;10.008;2023-02-17T08:18:47;9.97;;;7.77;;
8252;SDS011;61313;48.396;10.008;2023-02-17T08:21:12;12.93;;;7.67;;
8252;SDS011;61313;48.396;10.008;2023-02-17T08:23:38;9.70;;;7.03;;
8252;SDS011;61313;48.396;10.008;2023-02-17T08:26:03;11.93;;;7.37;;
8252;SDS011;61313;48.396;10.008;2023-02-17T08:28:29;15.30;;;8.37;;
8252;SDS011;61313;48.396;10.008;2023-02-17T08:30:54;12.80;;;7.70;;
8252;SDS011;61313;48.396;10.008;2023-02-17T08:33:20;11.67;;;7.50;;
8252;SDS011;61313;48.396;10.008;2023-02-17T08:35:45;29.10;;;9.57;;
8252;SDS011;61313;48.396;10.008;2023-02-17T08:38:11;12.20;;;9.30;;
8252;SDS011;61313;48.396;10.008;2023-02-17T08:40:36;18.60;;;7.87;;
8252;SDS011;61313;48.396;10.008;2023-02-17T08:43:02;16.33;;;7.10;;
8252;SDS011;61313;48.396;10.008;2023-02-17T08:45:27;24.10;;;10.27;;
8252;SDS011;61313;48.396;10.008;2023-02-17T08:47:54;13.57;;;7.20;;
8252;SDS011;61313;48.396;10.008;2023-02-17T08:50:20;20.17;;;7.20;;
8252;SDS011;61313;48.396;10.008;2023-02-17T08:52:45;13.33;;;7.33;;
8252;SDS011;61313;48.396;10.008;2023-02-17T08:55:11;13.73;;;8.20;;
8252;SDS011;61313;48.396;10.008;2023-02-17T08:57:37;16.30;;;7.63;;
8252;SDS011;61313;48.396;10.008;2023-02-17T09:00:04;16.73;;;6.50;;
8252;SDS011;61313;48.396;10.008;2023-02-17T09:02:31;10.27;;;8.17;;
8252;SDS011;61313;48.396;10.008;2023-02-17T09:04:57;10.20;;;7.10;;
8252;SDS011;61313;48.396;10.008;2023-02-17T09:07:22;7.17;;;5.90;;
8252;SDS011;61313;48.396;10.008;2023-02-17T09:09:48;10.33;;;6.80;;
8252;SDS011;61313;48.396;10.008;2023-02-17T09:12:13;10.53;;;5.97;;
8252;SDS011;61313;48.396;10.008;2023-02-17T09:14:39;10.90;;;6.17;;
8252;SDS011;61313;48.396;10.008;2023-02-17T09:17:04;8.03;;;6.40;;
8252;SDS011;61313;48.396;10.008;2023-02-17T09:19:29;8.90;;;6.10;;
8252;SDS011;61313;48.396;10.008;2023-02-17T09:21:55;7.90;;;5.70;;
8252;SDS011;61313;48.396;10.008;2023-02-17T09:24:20;10.67;;;5.33;;
8252;SDS011;61313;48.396;10.008;2023-02-17T09:26:46;8.00;;;6.83;;
8252;SDS011;61313;48.396;10.008;2023-02-17T09:29:11;7.03;;;5.93;;
8252;SDS011;61313;48.396;10.008;2023-02-17T09:31:37;8.97;;;6.50;;
8252;SDS011;61313;48.396;10.008;2023-02-17T09:34:02;7.83;;;5.60;;
8252;SDS011;61313;48.396;10.008;2023-02-17T09:36:30;11.80;;;7.17;;
8252;SDS011;61313;48.396;10.008;2023-02-17T09:38:57;8.20;;;6.20;;
8252;SDS011;61313;48.396;10.008;2023-02-17T09:44:30;20.23;;;6.87;;
8252;SDS011;61313;48.396;10.008;2023-02-17T09:47:04;11.17;;;5.97;;
8252;SDS011;61313;48.396;10.008;2023-02-17T09:49:39;16.13;;;6.17;;
8252;SDS011;61313;48.396;10.008;2023-02-17T09:52:17;12.87;;;7.00;;
8252;SDS011;61313;48.396;10.008;2023-02-17T09:55:06;28.23;;;8.93;;
8252;SDS011;61313;48.396;10.008;2023-02-17T09:57:40;15.30;;;5.93;;
8252;SDS011;61313;48.396;10.008;2023-02-17T10:00:16;12.93;;;6.30;;
8252;SDS011;61313;48.396;10.008;2023-02-17T10:05:53;11.70;;;6.63;;
8252;SDS011;61313;48.396;10.008;2023-02-17T10:08:34;11.83;;;6.13;;
8252;SDS011;61313;48.396;10.008;2023-02-17T10:13:56;7.23;;;5.63;;
8252;SDS011;61313;48.396;10.008;2023-02-17T10:16:31;12.30;;;5.70;;
8252;SDS011;61313;48.396;10.008;2023-02-17T10:19:12;8.67;;;5.10;;
8252;SDS011;61313;48.396;10.008;2023-02-17T10:21:45;10.17;;;5.20;;
8252;SDS011;61313;48.396;10.008;2023-02-17T10:24:21;11.10;;;5.40;;
8252;SDS011;61313;48.396;10.008;2023-02-17T10:38:53;7.50;;;5.33;;
8252;SDS011;61313;48.396;10.008;2023-02-17T10:41:26;10.67;;;4.87;;
8252;SDS011;61313;48.396;10.008;2023-02-17T10:43:59;10.70;;;5.00;;
8252;SDS011;61313;48.396;10.008;2023-02-17T10:46:27;13.23;;;6.10;;
8252;SDS011;61313;48.396;10.008;2023-02-17T10:48:54;11.00;;;5.10;;
8252;SDS011;61313;48.396;10.008;2023-02-17T10:51:27;8.47;;;5.77;;
8252;SDS011;61313;48.396;10.008;2023-02-17T10:54:11;5.03;;;4.40;;
8252;SDS011;61313;48.396;10.008;2023-02-17T10:56:46;7.70;;;5.47;;
8252;SDS011;61313;48.396;10.008;2023-02-17T10:59:17;12.70;;;5.93;;
8252;SDS011;61313;48.396;10.008;2023-02-17T11:01:47;7.37;;;6.00;;
8252;SDS011;61313;48.396;10.008;2023-02-17T11:04:13;13.47;;;5.80;;
8252;SDS011;61313;48.396;10.008;2023-02-17T11:06:43;14.23;;;6.60;;
8252;SDS011;61313;48.396;10.008;2023-02-17T11:09:19;19.47;;;7.17;;
8252;SDS011;61313;48.396;10.008;2023-02-17T11:11:59;13.37;;;5.00;;
8252;SDS011;61313;48.396;10.008;2023-02-17T11:14:27;11.83;;;5.17;;
8252;SDS011;61313;48.396;10.008;2023-02-17T11:16:59;7.13;;;4.70;;
8252;SDS011;61313;48.396;10.008;2023-02-17T11:19:28;8.53;;;4.70;;
8252;SDS011;61313;48.396;10.008;2023-02-17T11:21:58;8.33;;;5.63;;
8252;SDS011;61313;48.396;10.008;2023-02-17T11:24:25;10.13;;;5.40;;
8252;SDS011;61313;48.396;10.008;2023-02-17T11:26:56;7.70;;;5.10;;
8252;SDS011;61313;48.396;10.008;2023-02-17T11:29:25;5.70;;;4.30;;
8252;SDS011;61313;48.396;10.008;2023-02-17T11:32:05;7.33;;;4.43;;
8252;SDS011;61313;48.396;10.008;2023-02-17T11:34:34;5.83;;;4.50;;
8252;SDS011;61313;48.396;10.008;2023-02-17T11:39:39;7.00;;;5.03;;
8252;SDS011;61313;48.396;10.008;2023-02-17T11:42:40;13.30;;;5.13;;
8252;SDS011;61313;48.396;10.008;2023-02-17T11:45:17;26.13;;;6.03;;
8252;SDS011;61313;48.396;10.008;2023-02-17T11:56:36;14.13;;;5.53;;
8252;SDS011;61313;48.396;10.008;2023-02-17T12:01:53;16.30;;;6.30;;
8252;SDS011;61313;48.396;10.008;2023-02-17T12:04:30;10.13;;;5.30;;
8252;SDS011;61313;48.396;10.008;2023-02-17T12:09:50;7.83;;;4.83;;
8252;SDS011;61313;48.396;10.008;2023-02-17T12:12:25;6.60;;;4.50;;
8252;SDS011;61313;48.396;10.008;2023-02-17T12:25:59;12.57;;;4.40;;
8252;SDS011;61313;48.396;10.008;2023-02-17T12:34:24;11.53;;;4.00;;
8252;SDS011;61313;48.396;10.008;2023-02-17T12:36:52;11.37;;;3.77;;
8252;SDS011;61313;48.396;10.008;2023-02-17T12:39:25;13.57;;;3.80;;
8252;SDS011;61313;48.396;10.008;2023-02-17T12:44:33;6.77;;;3.57;;
8252;SDS011;61313;48.396;10.008;2023-02-17T12:47:14;9.17;;;3.60;;
8252;SDS011;61313;48.396;10.008;2023-02-17T12:49:49;10.60;;;3.53;;
8252;SDS011;61313;48.396;10.008;2023-02-17T12:52:22;5.43;;;3.10;;
8252;SDS011;61313;48.396;10.008;2023-02-17T12:57:58;5.87;;;3.70;;
8252;SDS011;61313;48.396;10.008;2023-02-17T13:00:33;9.00;;;4.27;;
8252;SDS011;61313;48.396;10.008;2023-02-17T13:03:03;7.17;;;4.13;;
8252;SDS011;61313;48.396;10.008;2023-02-17T13:05:30;14.90;;;4.43;;
8252;SDS011;61313;48.396;10.008;2023-02-17T13:11:28;6.23;;;4.23;;
8252;SDS011;61313;48.396;10.008;2023-02-17T13:13:56;5.10;;;4.03;;
8252;SDS011;61313;48.396;10.008;2023-02-17T13:16:40;8.07;;;3.50;;
8252;SDS011;61313;48.396;10.008;2023-02-17T13:19:08;9.20;;;3.90;;
8252;SDS011;61313;48.396;10.008;2023-02-17T13:21:33;15.27;;;5.20;;
8252;SDS011;61313;48.396;10.008;2023-02-17T13:24:02;10.90;;;6.00;;
8252;SDS011;61313;48.396;10.008;2023-02-17T13:26:39;10.13;;;4.80;;
8252;SDS011;61313;48.396;10.008;2023-02-17T13:29:08;13.20;;;5.60;;
8252;SDS011;61313;48.396;10.008;2023-02-17T13:31:53;6.70;;;4.20;;
8252;SDS011;61313;48.396;10.008;2023-02-17T13:37:17;8.90;;;4.53;;
8252;SDS011;61313;48.396;10.008;2023-02-17T13:42:42;18.70;;;5.50;;
8252;SDS011;61313;48.396;10.008;2023-02-17T13:47:52;17.00;;;5.20;;
8252;SDS011;61313;48.396;10.008;2023-02-17T13:52:52;4.93;;;4.40;;
8252;SDS011;61313;48.396;10.008;2023-02-17T13:55:18;9.37;;;3.97;;
8252;SDS011;61313;48.396;10.008;2023-02-17T13:57:44;16.23;;;4.87;;
8252;SDS011;61313;48.396;10.008;2023-02-17T14:03:33;14.33;;;3.70;;
8252;SDS011;61313;48.396;10.008;2023-02-17T14:05:44;10.50;;;4.40;;
8252;SDS011;61313;48.396;10.008;2023-02-17T14:08:28;4.90;;;3.63;;
8252;SDS011;61313;48.396;10.008;2023-02-17T14:11:10;7.13;;;3.43;;
8252;SDS011;61313;48.396;10.008;2023-02-17T14:13:39;10.23;;;3.80;;
8252;SDS011;61313;48.396;10.008;2023-02-17T14:16:20;4.67;;;3.00;;
8252;SDS011;61313;48.396;10.008;2023-02-17T14:18:59;5.80;;;3.70;;
8252;SDS011;61313;48.396;10.008;2023-02-17T14:21:27;5.60;;;3.80;;
8252;SDS011;61313;48.396;10.008;2023-02-17T14:23:54;6.13;;;3.30;;
8252;SDS011;61313;48.396;10.008;2023-02-17T14:29:13;6.60;;;3.20;;
8252;SDS011;61313;48.396;10.008;2023-02-17T14:31:40;9.13;;;3.27;;
8252;SDS011;61313;48.396;10.008;2023-02-17T14:34:11;7.90;;;3.03;;
8252;SDS011;61313;48.396;10.008;2023-02-17T14:37:17;11.23;;;2.83;;
8252;SDS011;61313;48.396;10.008;2023-02-17T14:39:46;9.07;;;3.43;;
8252;SDS011;61313;48.396;10.008;2023-02-17T14:42:12;5.73;;;3.13;;
8252;SDS011;61313;48.396;10.008;2023-02-17T14:44:38;9.43;;;3.20;;
8252;SDS011;61313;48.396;10.008;2023-02-17T14:47:03;4.73;;;2.80;;
8252;SDS011;61313;48.396;10.008;2023-02-17T14:49:29;8.27;;;2.60;;
8252;SDS011;61313;48.396;10.008;2023-02-17T14:51:54;6.70;;;2.90;;
8252;SDS011;61313;48.396;10.008;2023-02-17T14:54:20;6.60;;;2.70;;
8252;SDS011;61313;48.396;10.008;2023-02-17T14:57:04;8.80;;;3.10;;
8252;SDS011;61313;48.396;10.008;2023-02-17T14:59:31;6.40;;;2.97;;
8252;SDS011;61313;48.396;10.008;2023-02-17T15:01:57;12.23;;;3.67;;
8252;SDS011;61313;48.396;10.008;2023-02-17T15:04:22;3.40;;;2.77;;
8252;SDS011;61313;48.396;10.008;2023-02-17T15:06:48;11.40;;;3.40;;
8252;SDS011;61313;48.396;10.008;2023-02-17T15:09:16;8.37;;;2.80;;
8252;SDS011;61313;48.396;10.008;2023-02-17T15:11:45;5.80;;;2.90;;
8252;SDS011;61313;48.396;10.008;2023-02-17T15:14:13;4.93;;;3.13;;
8252;SDS011;61313;48.396;10.008;2023-02-17T15:16:40;4.80;;;3.00;;
8252;SDS011;61313;48.396;10.008;2023-02-17T15:19:07;2.80;;;2.10;;
8252;SDS011;61313;48.396;10.008;2023-02-17T15:21:34;2.50;;;2.30;;
8252;SDS011;61313;48.396;10.008;2023-02-17T15:24:02;2.67;;;2.10;;
8252;SDS011;61313;48.396;10.008;2023-02-17T15:26:38;5.03;;;2.40;;
8252;SDS011;61313;48.396;10.008;2023-02-17T15:29:03;4.90;;;2.60;;
8252;SDS011;61313;48.396;10.008;2023-02-17T15:31:28;9.03;;;2.60;;
8252;SDS011;61313;48.396;10.008;2023-02-17T15:33:57;5.50;;;2.30;;
8252;SDS011;61313;48.396;10.008;2023-02-17T15:36:24;3.50;;;2.20;;
8252;SDS011;61313;48.396;10.008;2023-02-17T15:38:51;8.47;;;2.57;;
8252;SDS011;61313;48.396;10.008;2023-02-17T15:41:17;4.80;;;2.93;;
8252;SDS011;61313;48.396;10.008;2023-02-17T15:43:46;9.30;;;3.37;;
8252;SDS011;61313;48.396;10.008;2023-02-17T15:46:14;4.80;;;2.00;;
8252;SDS011;61313;48.396;10.008;2023-02-17T15:48:42;4.87;;;2.70;;
8252;SDS011;61313;48.396;10.008;2023-02-17T15:51:12;8.67;;;4.93;;
8252;SDS011;61313;48.396;10.008;2023-02-17T15:53:40;4.37;;;3.33;;
8252;SDS011;61313;48.396;10.008;2023-02-17T15:56:13;15.53;;;4.30;;
8252;SDS011;61313;48.396;10.008;2023-02-17T15:58:42;5.50;;;3.40;;
8252;SDS011;61313;48.396;10.008;2023-02-17T16:01:12;7.33;;;3.73;;
8252;SDS011;61313;48.396;10.008;2023-02-17T16:03:45;3.93;;;3.00;;
8252;SDS011;61313;48.396;10.008;2023-02-17T16:06:11;4.25;;;2.50;;
8252;SDS011;61313;48.396;10.008;2023-02-17T16:08:36;4.10;;;2.53;;
8252;SDS011;61313;48.396;10.008;2023-02-17T16:11:02;2.77;;;2.20;;
8252;SDS011;61313;48.396;10.008;2023-02-17T16:13:27;3.57;;;2.07;;
8252;SDS011;61313;48.396;10.008;2023-02-17T16:15:54;2.80;;;2.00;;
8252;SDS011;61313;48.396;10.008;2023-02-17T16:18:22;4.47;;;1.97;;
8252;SDS011;61313;48.396;10.008;2023-02-17T16:20:49;19.73;;;3.97;;
8252;SDS011;61313;48.396;10.008;2023-02-17T16:23:15;3.00;;;2.20;;